sensor_id;sensor_type;location;lat;lon;timestamp;pressure;altitude;pressure_sealevel;temperature;humidity
44127;BME280;29786;50.798;7.302;2023-08-17T00:00:44;99390;;;19.7;100
44127;BME280;29786;50.798;7.302;2023-08-17T00:01:44;99390;;;19.77;100
44127;BME280;29786;50.798;7.302;2023-08-17T00:02:44;99390;;;19.79;100
44127;BME280;29786;50.798;7.302;2023-08-17T00:03:44;99390;;;19.85;100
44127;BME280;29786;50.798;7.302;2023-08-17T00:04:44;99400;;;19.92;100
44127;BME280;29786;50.798;7.302;2023-08-17T00:05:44;99400;;;19.99;100
44127;BME280;29786;50.798;7.302;2023-08-17T00:06:44;99400;;;20.04;100
44127;BME280;29786;50.798;7.302;2023-08-17T00:07:44;99410;;;20.03;100
44127;BME280;29786;50.798;7.302;2023-08-17T00:08:44;99400;;;20.02;100
44127;BME280;29786;50.798;7.302;2023-08-17T00:09:44;99400;;;20.1;100
44127;BME280;29786;50.798;7.302;2023-08-17T00:10:44;99410;;;20.2;100
44127;BME280;29786;50.798;7.302;2023-08-17T00:11:44;99410;;;20.2;100
44127;BME280;29786;50.798;7.302;2023-08-17T00:12:44;99410;;;20.36;100
44127;BME280;29786;50.798;7.302;2023-08-17T00:13:44;99410;;;20.36;100
44127;BME280;29786;50.798;7.302;2023-08-17T00:14:44;99410;;;20.41;100
44127;BME280;29786;50.798;7.302;2023-08-17T00:15:44;99410;;;20.42;100
44127;BME280;29786;50.798;7.302;2023-08-17T00:16:44;99410;;;20.45;100
44127;BME280;29786;50.798;7.302;2023-08-17T00:17:44;99410;;;20.41;100
44127;BME280;29786;50.798;7.302;2023-08-17T00:18:44;99400;;;20.41;100
44127;BME280;29786;50.798;7.302;2023-08-17T00:19:44;99410;;;20.4;100
44127;BME280;29786;50.798;7.302;2023-08-17T00:20:44;99400;;;20.39;100
44127;BME280;29786;50.798;7.302;2023-08-17T00:21:44;99400;;;20.44;100
44127;BME280;29786;50.798;7.302;2023-08-17T00:22:44;99400;;;20.44;100
44127;BME280;29786;50.798;7.302;2023-08-17T00:23:44;99410;;;20.36;100
44127;BME280;29786;50.798;7.302;2023-08-17T00:24:44;99400;;;20.29;100
44127;BME280;29786;50.798;7.302;2023-08-17T00:25:44;99400;;;20.21;100
44127;BME280;29786;50.798;7.302;2023-08-17T00:26:44;99400;;;20.17;100
44127;BME280;29786;50.798;7.302;2023-08-17T00:27:44;99400;;;20.04;100
44127;BME280;29786;50.798;7.302;2023-08-17T00:28:44;99410;;;20.12;100
44127;BME280;29786;50.798;7.302;2023-08-17T00:29:44;99400;;;20.19;100
44127;BME280;29786;50.798;7.302;2023-08-17T00:30:44;99400;;;20.18;100
44127;BME280;29786;50.798;7.302;2023-08-17T00:31:44;99410;;;20.23;100
44127;BME280;29786;50.798;7.302;2023-08-17T00:32:44;99410;;;20.23;100
44127;BME280;29786;50.798;7.302;2023-08-17T00:33:44;99410;;;20.09;100
44127;BME280;29786;50.798;7.302;2023-08-17T00:34:44;99410;;;19.91;100
44127;BME280;29786;50.798;7.302;2023-08-17T00:35:44;99410;;;19.84;100
44127;BME280;29786;50.798;7.302;2023-08-17T00:36:44;99410;;;19.45;100
44127;BME280;29786;50.798;7.302;2023-08-17T00:37:44;99420;;;19.32;100
44127;BME280;29786;50.798;7.302;2023-08-17T00:38:44;99410;;;19.21;100
44127;BME280;29786;50.798;7.302;2023-08-17T00:39:44;99420;;;19.19;100
44127;BME280;29786;50.798;7.302;2023-08-17T00:40:44;99420;;;19.23;100
44127;BME280;29786;50.798;7.302;2023-08-17T00:41:44;99420;;;19.31;100
44127;BME280;29786;50.798;7.302;2023-08-17T00:42:44;99420;;;19.31;100
44127;BME280;29786;50.798;7.302;2023-08-17T00:43:44;99410;;;19.29;100
44127;BME280;29786;50.798;7.302;2023-08-17T00:44:44;99410;;;19.34;100
44127;BME280;29786;50.798;7.302;2023-08-17T00:45:44;99410;;;19.32;100
44127;BME280;29786;50.798;7.302;2023-08-17T00:46:44;99410;;;19.32;100
44127;BME280;29786;50.798;7.302;2023-08-17T00:47:44;99410;;;19.28;100
44127;BME280;29786;50.798;7.302;2023-08-17T00:48:44;99410;;;19.15;100
44127;BME280;29786;50.798;7.302;2023-08-17T00:49:44;99410;;;19.16;100
44127;BME280;29786;50.798;7.302;2023-08-17T00:50:44;99410;;;19.14;100
44127;BME280;29786;50.798;7.302;2023-08-17T00:51:44;99410;;;19.15;100
44127;BME280;29786;50.798;7.302;2023-08-17T00:52:44;99410;;;19.17;100
44127;BME280;29786;50.798;7.302;2023-08-17T00:53:44;99410;;;19.24;100
44127;BME280;29786;50.798;7.302;2023-08-17T00:54:44;99410;;;19.29;100
44127;BME280;29786;50.798;7.302;2023-08-17T00:55:44;99400;;;19.29;100
44127;BME280;29786;50.798;7.302;2023-08-17T00:56:44;99400;;;19.28;100
44127;BME280;29786;50.798;7.302;2023-08-17T00:57:44;99410;;;19.27;100
44127;BME280;29786;50.798;7.302;2023-08-17T00:58:44;99400;;;19.23;100
44127;BME280;29786;50.798;7.302;2023-08-17T00:59:44;99410;;;19.25;100
44127;BME280;29786;50.798;7.302;2023-08-17T01:00:44;99410;;;19.28;100
44127;BME280;29786;50.798;7.302;2023-08-17T01:01:44;99410;;;19.31;100
44127;BME280;29786;50.798;7.302;2023-08-17T01:02:44;99410;;;19.21;100
44127;BME280;29786;50.798;7.302;2023-08-17T01:03:44;99410;;;19.12;100
44127;BME280;29786;50.798;7.302;2023-08-17T01:04:44;99410;;;19.11;100
44127;BME280;29786;50.798;7.302;2023-08-17T01:05:44;99410;;;19.12;100
44127;BME280;29786;50.798;7.302;2023-08-17T01:06:44;99410;;;19.19;100
44127;BME280;29786;50.798;7.302;2023-08-17T01:07:44;99410;;;19.31;100
44127;BME280;29786;50.798;7.302;2023-08-17T01:08:44;99410;;;19.39;100
44127;BME280;29786;50.798;7.302;2023-08-17T01:09:44;99410;;;19.45;100
44127;BME280;29786;50.798;7.302;2023-08-17T01:10:47;99410;;;19.46;100
44127;BME280;29786;50.798;7.302;2023-08-17T01:11:46;99400;;;19.5;100
44127;BME280;29786;50.798;7.302;2023-08-17T01:13:46;99400;;;19.54;100
44127;BME280;29786;50.798;7.302;2023-08-17T01:14:50;99400;;;19.52;100
44127;BME280;29786;50.798;7.302;2023-08-17T01:15:46;99400;;;19.54;100
44127;BME280;29786;50.798;7.302;2023-08-17T01:16:48;99400;;;19.58;100
44127;BME280;29786;50.798;7.302;2023-08-17T01:17:49;99400;;;19.62;100
44127;BME280;29786;50.798;7.302;2023-08-17T01:18:44;99400;;;19.56;100
44127;BME280;29786;50.798;7.302;2023-08-17T01:19:44;99400;;;19.56;100
44127;BME280;29786;50.798;7.302;2023-08-17T01:20:44;99400;;;19.57;100
44127;BME280;29786;50.798;7.302;2023-08-17T01:21:49;99410;;;19.58;100
44127;BME280;29786;50.798;7.302;2023-08-17T01:22:45;99410;;;19.67;100
44127;BME280;29786;50.798;7.302;2023-08-17T01:23:45;99410;;;19.75;100
44127;BME280;29786;50.798;7.302;2023-08-17T01:24:44;99410;;;19.79;100
44127;BME280;29786;50.798;7.302;2023-08-17T01:25:44;99410;;;19.81;100
44127;BME280;29786;50.798;7.302;2023-08-17T01:26:44;99410;;;19.79;100
44127;BME280;29786;50.798;7.302;2023-08-17T01:27:45;99410;;;19.79;100
44127;BME280;29786;50.798;7.302;2023-08-17T01:28:44;99410;;;19.71;100
44127;BME280;29786;50.798;7.302;2023-08-17T01:29:44;99410;;;19.73;100
44127;BME280;29786;50.798;7.302;2023-08-17T01:30:47;99410;;;19.7;100
44127;BME280;29786;50.798;7.302;2023-08-17T01:31:47;99410;;;19.62;100
44127;BME280;29786;50.798;7.302;2023-08-17T01:32:48;99410;;;19.53;100
44127;BME280;29786;50.798;7.302;2023-08-17T01:33:46;99410;;;19.49;100
44127;BME280;29786;50.798;7.302;2023-08-17T01:34:44;99410;;;19.41;100
44127;BME280;29786;50.798;7.302;2023-08-17T01:36:18;99410;;;19.37;100
44127;BME280;29786;50.798;7.302;2023-08-17T01:36:46;99410;;;19.4;100
44127;BME280;29786;50.798;7.302;2023-08-17T01:37:44;99400;;;19.39;100
44127;BME280;29786;50.798;7.302;2023-08-17T01:38:44;99400;;;19.36;100
44127;BME280;29786;50.798;7.302;2023-08-17T01:39:44;99400;;;19.4;100
44127;BME280;29786;50.798;7.302;2023-08-17T01:40:45;99410;;;19.42;100
44127;BME280;29786;50.798;7.302;2023-08-17T01:41:45;99410;;;19.46;100
44127;BME280;29786;50.798;7.302;2023-08-17T01:42:44;99410;;;19.48;100
44127;BME280;29786;50.798;7.302;2023-08-17T01:43:44;99410;;;19.45;100
44127;BME280;29786;50.798;7.302;2023-08-17T01:44:44;99410;;;19.51;100
44127;BME280;29786;50.798;7.302;2023-08-17T01:45:44;99410;;;19.48;100
44127;BME280;29786;50.798;7.302;2023-08-17T01:46:44;99410;;;19.48;100
44127;BME280;29786;50.798;7.302;2023-08-17T01:47:44;99410;;;19.51;100
44127;BME280;29786;50.798;7.302;2023-08-17T01:48:44;99410;;;19.51;100
44127;BME280;29786;50.798;7.302;2023-08-17T01:49:44;99410;;;19.5;100
44127;BME280;29786;50.798;7.302;2023-08-17T01:50:44;99410;;;19.58;100
44127;BME280;29786;50.798;7.302;2023-08-17T01:51:44;99410;;;19.58;100
44127;BME280;29786;50.798;7.302;2023-08-17T01:52:44;99410;;;19.62;100
44127;BME280;29786;50.798;7.302;2023-08-17T01:53:44;99410;;;19.58;100
44127;BME280;29786;50.798;7.302;2023-08-17T01:54:44;99410;;;19.58;100
44127;BME280;29786;50.798;7.302;2023-08-17T01:55:44;99410;;;19.56;100
44127;BME280;29786;50.798;7.302;2023-08-17T01:56:44;99410;;;19.51;100
44127;BME280;29786;50.798;7.302;2023-08-17T01:57:44;99410;;;19.51;100
44127;BME280;29786;50.798;7.302;2023-08-17T01:58:44;99410;;;19.49;100
44127;BME280;29786;50.798;7.302;2023-08-17T01:59:44;99410;;;19.52;100
44127;BME280;29786;50.798;7.302;2023-08-17T02:00:44;99420;;;19.54;100
44127;BME280;29786;50.798;7.302;2023-08-17T02:01:44;99420;;;19.51;100
44127;BME280;29786;50.798;7.302;2023-08-17T02:02:44;99420;;;19.54;100
44127;BME280;29786;50.798;7.302;2023-08-17T02:03:44;99420;;;19.56;100
44127;BME280;29786;50.798;7.302;2023-08-17T02:04:44;99410;;;19.6;100
44127;BME280;29786;50.798;7.302;2023-08-17T02:05:45;99410;;;19.56;100
44127;BME280;29786;50.798;7.302;2023-08-17T02:06:44;99420;;;19.53;100
44127;BME280;29786;50.798;7.302;2023-08-17T02:07:44;99410;;;19.49;100
44127;BME280;29786;50.798;7.302;2023-08-17T02:08:45;99410;;;19.54;100
44127;BME280;29786;50.798;7.302;2023-08-17T02:09:44;99410;;;19.57;100
44127;BME280;29786;50.798;7.302;2023-08-17T02:10:44;99410;;;19.54;100
44127;BME280;29786;50.798;7.302;2023-08-17T02:11:44;99410;;;19.5;100
44127;BME280;29786;50.798;7.302;2023-08-17T02:12:44;99410;;;19.43;100
44127;BME280;29786;50.798;7.302;2023-08-17T02:13:44;99410;;;19.41;100
44127;BME280;29786;50.798;7.302;2023-08-17T02:14:44;99410;;;19.37;100
44127;BME280;29786;50.798;7.302;2023-08-17T02:15:44;99410;;;19.42;100
44127;BME280;29786;50.798;7.302;2023-08-17T02:16:44;99410;;;19.48;100
44127;BME280;29786;50.798;7.302;2023-08-17T02:17:44;99410;;;19.53;100
44127;BME280;29786;50.798;7.302;2023-08-17T02:18:44;99410;;;19.56;100
44127;BME280;29786;50.798;7.302;2023-08-17T02:19:44;99410;;;19.58;100
44127;BME280;29786;50.798;7.302;2023-08-17T02:21:44;99410;;;19.53;100
44127;BME280;29786;50.798;7.302;2023-08-17T02:22:44;99410;;;19.52;100
44127;BME280;29786;50.798;7.302;2023-08-17T02:23:44;99410;;;19.53;100
44127;BME280;29786;50.798;7.302;2023-08-17T02:24:44;99410;;;19.58;100
44127;BME280;29786;50.798;7.302;2023-08-17T02:25:44;99410;;;19.6;100
44127;BME280;29786;50.798;7.302;2023-08-17T02:26:44;99400;;;19.6;100
44127;BME280;29786;50.798;7.302;2023-08-17T02:27:44;99410;;;19.62;100
44127;BME280;29786;50.798;7.302;2023-08-17T02:28:44;99400;;;19.64;100
44127;BME280;29786;50.798;7.302;2023-08-17T02:29:44;99400;;;19.6;100
44127;BME280;29786;50.798;7.302;2023-08-17T02:30:45;99400;;;19.57;100
44127;BME280;29786;50.798;7.302;2023-08-17T02:31:44;99400;;;19.57;100
44127;BME280;29786;50.798;7.302;2023-08-17T02:32:44;99400;;;19.58;100
44127;BME280;29786;50.798;7.302;2023-08-17T02:33:44;99400;;;19.58;100
44127;BME280;29786;50.798;7.302;2023-08-17T02:34:44;99400;;;19.57;100
44127;BME280;29786;50.798;7.302;2023-08-17T02:35:47;99400;;;19.59;100
44127;BME280;29786;50.798;7.302;2023-08-17T02:36:44;99390;;;19.66;100
44127;BME280;29786;50.798;7.302;2023-08-17T02:37:44;99390;;;19.67;100
44127;BME280;29786;50.798;7.302;2023-08-17T02:38:44;99390;;;19.65;100
44127;BME280;29786;50.798;7.302;2023-08-17T02:39:44;99390;;;19.61;100
44127;BME280;29786;50.798;7.302;2023-08-17T02:40:44;99390;;;19.57;100
44127;BME280;29786;50.798;7.302;2023-08-17T02:41:44;99390;;;19.57;100
44127;BME280;29786;50.798;7.302;2023-08-17T02:42:44;99390;;;19.58;100
44127;BME280;29786;50.798;7.302;2023-08-17T02:43:44;99380;;;19.62;100
44127;BME280;29786;50.798;7.302;2023-08-17T02:44:44;99380;;;19.67;100
44127;BME280;29786;50.798;7.302;2023-08-17T02:45:51;99380;;;19.69;100
44127;BME280;29786;50.798;7.302;2023-08-17T02:46:44;99370;;;19.7;100
44127;BME280;29786;50.798;7.302;2023-08-17T02:47:44;99370;;;19.73;100
44127;BME280;29786;50.798;7.302;2023-08-17T02:48:44;99370;;;19.71;100
44127;BME280;29786;50.798;7.302;2023-08-17T02:49:44;99370;;;19.71;100
44127;BME280;29786;50.798;7.302;2023-08-17T02:50:44;99370;;;19.71;100
44127;BME280;29786;50.798;7.302;2023-08-17T02:51:44;99370;;;19.7;100
44127;BME280;29786;50.798;7.302;2023-08-17T02:52:44;99370;;;19.7;100
44127;BME280;29786;50.798;7.302;2023-08-17T02:53:44;99370;;;19.7;100
44127;BME280;29786;50.798;7.302;2023-08-17T02:54:44;99370;;;19.71;100
44127;BME280;29786;50.798;7.302;2023-08-17T02:55:44;99360;;;19.76;100
44127;BME280;29786;50.798;7.302;2023-08-17T02:56:44;99360;;;19.76;100
44127;BME280;29786;50.798;7.302;2023-08-17T02:57:44;99360;;;19.78;100
44127;BME280;29786;50.798;7.302;2023-08-17T02:58:44;99360;;;19.79;100
44127;BME280;29786;50.798;7.302;2023-08-17T02:59:44;99360;;;19.77;100
44127;BME280;29786;50.798;7.302;2023-08-17T03:00:44;99360;;;19.74;100
44127;BME280;29786;50.798;7.302;2023-08-17T03:01:44;99360;;;19.73;100
44127;BME280;29786;50.798;7.302;2023-08-17T03:02:44;99360;;;19.71;100
44127;BME280;29786;50.798;7.302;2023-08-17T03:03:44;99360;;;19.7;100
44127;BME280;29786;50.798;7.302;2023-08-17T03:04:44;99360;;;19.67;100
44127;BME280;29786;50.798;7.302;2023-08-17T03:05:44;99350;;;19.62;100
44127;BME280;29786;50.798;7.302;2023-08-17T03:06:44;99350;;;19.62;100
44127;BME280;29786;50.798;7.302;2023-08-17T03:07:44;99350;;;19.62;100
44127;BME280;29786;50.798;7.302;2023-08-17T03:08:44;99350;;;19.7;100
44127;BME280;29786;50.798;7.302;2023-08-17T03:09:44;99350;;;19.69;100
44127;BME280;29786;50.798;7.302;2023-08-17T03:10:44;99350;;;19.74;100
44127;BME280;29786;50.798;7.302;2023-08-17T03:11:44;99350;;;19.76;100
44127;BME280;29786;50.798;7.302;2023-08-17T03:12:44;99350;;;19.83;100
44127;BME280;29786;50.798;7.302;2023-08-17T03:13:44;99350;;;19.83;100
44127;BME280;29786;50.798;7.302;2023-08-17T03:14:44;99360;;;19.95;100
44127;BME280;29786;50.798;7.302;2023-08-17T03:15:44;99360;;;19.99;100
44127;BME280;29786;50.798;7.302;2023-08-17T03:16:44;99360;;;19.96;100
44127;BME280;29786;50.798;7.302;2023-08-17T03:17:44;99350;;;19.99;100
44127;BME280;29786;50.798;7.302;2023-08-17T03:18:44;99350;;;20;100
44127;BME280;29786;50.798;7.302;2023-08-17T03:19:44;99350;;;20;100
44127;BME280;29786;50.798;7.302;2023-08-17T03:20:44;99350;;;20.08;100
44127;BME280;29786;50.798;7.302;2023-08-17T03:21:44;99350;;;20.12;100
44127;BME280;29786;50.798;7.302;2023-08-17T03:22:44;99350;;;20.15;100
44127;BME280;29786;50.798;7.302;2023-08-17T03:23:44;99350;;;20.14;100
44127;BME280;29786;50.798;7.302;2023-08-17T03:24:44;99350;;;20.09;100
44127;BME280;29786;50.798;7.302;2023-08-17T03:25:44;99350;;;20.01;100
44127;BME280;29786;50.798;7.302;2023-08-17T03:26:44;99350;;;19.96;100
44127;BME280;29786;50.798;7.302;2023-08-17T03:27:44;99350;;;19.92;100
44127;BME280;29786;50.798;7.302;2023-08-17T03:28:44;99350;;;19.86;100
44127;BME280;29786;50.798;7.302;2023-08-17T03:29:44;99350;;;19.76;100
44127;BME280;29786;50.798;7.302;2023-08-17T03:30:44;99350;;;19.7;100
44127;BME280;29786;50.798;7.302;2023-08-17T03:31:44;99350;;;19.65;100
44127;BME280;29786;50.798;7.302;2023-08-17T03:32:44;99350;;;19.66;100
44127;BME280;29786;50.798;7.302;2023-08-17T03:33:44;99340;;;19.73;100
44127;BME280;29786;50.798;7.302;2023-08-17T03:34:44;99340;;;19.79;100
44127;BME280;29786;50.798;7.302;2023-08-17T03:35:44;99350;;;19.81;100
44127;BME280;29786;50.798;7.302;2023-08-17T03:36:44;99350;;;19.79;100
44127;BME280;29786;50.798;7.302;2023-08-17T03:37:44;99350;;;19.7;100
44127;BME280;29786;50.798;7.302;2023-08-17T03:38:44;99350;;;19.67;100
44127;BME280;29786;50.798;7.302;2023-08-17T03:39:44;99350;;;19.61;100
44127;BME280;29786;50.798;7.302;2023-08-17T03:40:44;99350;;;19.62;100
44127;BME280;29786;50.798;7.302;2023-08-17T03:41:44;99350;;;19.61;100
44127;BME280;29786;50.798;7.302;2023-08-17T03:42:44;99350;;;19.48;100
44127;BME280;29786;50.798;7.302;2023-08-17T03:43:44;99350;;;19.34;100
44127;BME280;29786;50.798;7.302;2023-08-17T03:44:44;99350;;;19.34;100
44127;BME280;29786;50.798;7.302;2023-08-17T03:45:44;99350;;;19.14;100
44127;BME280;29786;50.798;7.302;2023-08-17T03:46:44;99350;;;18.96;100
44127;BME280;29786;50.798;7.302;2023-08-17T03:47:44;99350;;;18.85;100
44127;BME280;29786;50.798;7.302;2023-08-17T03:48:44;99350;;;19.01;100
44127;BME280;29786;50.798;7.302;2023-08-17T03:49:44;99350;;;18.91;100
44127;BME280;29786;50.798;7.302;2023-08-17T03:50:44;99350;;;18.78;100
44127;BME280;29786;50.798;7.302;2023-08-17T03:51:44;99350;;;18.75;100
44127;BME280;29786;50.798;7.302;2023-08-17T03:52:44;99350;;;18.82;100
44127;BME280;29786;50.798;7.302;2023-08-17T03:53:44;99360;;;18.82;100
44127;BME280;29786;50.798;7.302;2023-08-17T03:54:44;99360;;;18.83;100
44127;BME280;29786;50.798;7.302;2023-08-17T03:55:48;99360;;;18.87;100
44127;BME280;29786;50.798;7.302;2023-08-17T03:56:44;99360;;;18.93;100
44127;BME280;29786;50.798;7.302;2023-08-17T03:57:44;99360;;;19;100
44127;BME280;29786;50.798;7.302;2023-08-17T03:58:44;99360;;;19.06;100
44127;BME280;29786;50.798;7.302;2023-08-17T03:59:44;99360;;;19.02;100
44127;BME280;29786;50.798;7.302;2023-08-17T04:00:52;99360;;;19.12;100
44127;BME280;29786;50.798;7.302;2023-08-17T04:01:44;99360;;;19.17;100
44127;BME280;29786;50.798;7.302;2023-08-17T04:02:44;99370;;;19.29;100
44127;BME280;29786;50.798;7.302;2023-08-17T04:03:44;99370;;;19.39;100
44127;BME280;29786;50.798;7.302;2023-08-17T04:04:44;99370;;;19.42;100
44127;BME280;29786;50.798;7.302;2023-08-17T04:05:44;99370;;;19.45;100
44127;BME280;29786;50.798;7.302;2023-08-17T04:06:44;99370;;;19.43;100
44127;BME280;29786;50.798;7.302;2023-08-17T04:07:44;99360;;;19.43;100
44127;BME280;29786;50.798;7.302;2023-08-17T04:08:44;99370;;;19.4;100
44127;BME280;29786;50.798;7.302;2023-08-17T04:09:44;99370;;;19.37;100
44127;BME280;29786;50.798;7.302;2023-08-17T04:10:44;99370;;;19.32;100
44127;BME280;29786;50.798;7.302;2023-08-17T04:11:44;99370;;;19.2;100
44127;BME280;29786;50.798;7.302;2023-08-17T04:12:44;99370;;;19.2;100
44127;BME280;29786;50.798;7.302;2023-08-17T04:13:44;99380;;;19.24;100
44127;BME280;29786;50.798;7.302;2023-08-17T04:14:44;99370;;;19.19;100
44127;BME280;29786;50.798;7.302;2023-08-17T04:15:44;99380;;;19.21;100
44127;BME280;29786;50.798;7.302;2023-08-17T04:16:44;99380;;;19.19;100
44127;BME280;29786;50.798;7.302;2023-08-17T04:17:44;99380;;;19.19;100
44127;BME280;29786;50.798;7.302;2023-08-17T04:18:44;99380;;;19.15;100
44127;BME280;29786;50.798;7.302;2023-08-17T04:19:44;99380;;;19.2;100
44127;BME280;29786;50.798;7.302;2023-08-17T04:20:44;99380;;;19.19;100
44127;BME280;29786;50.798;7.302;2023-08-17T04:21:44;99380;;;19.29;100
44127;BME280;29786;50.798;7.302;2023-08-17T04:22:44;99390;;;19.34;100
44127;BME280;29786;50.798;7.302;2023-08-17T04:23:44;99390;;;19.29;100
44127;BME280;29786;50.798;7.302;2023-08-17T04:24:44;99390;;;19.28;100
44127;BME280;29786;50.798;7.302;2023-08-17T04:25:46;99390;;;19.31;100
44127;BME280;29786;50.798;7.302;2023-08-17T04:26:44;99390;;;19.25;100
44127;BME280;29786;50.798;7.302;2023-08-17T04:27:44;99390;;;19.27;100
44127;BME280;29786;50.798;7.302;2023-08-17T04:28:44;99390;;;19.32;100
44127;BME280;29786;50.798;7.302;2023-08-17T04:29:44;99390;;;19.34;100
44127;BME280;29786;50.798;7.302;2023-08-17T04:30:44;99390;;;19.37;100
44127;BME280;29786;50.798;7.302;2023-08-17T04:31:44;99390;;;19.35;100
44127;BME280;29786;50.798;7.302;2023-08-17T04:32:44;99390;;;19.32;100
44127;BME280;29786;50.798;7.302;2023-08-17T04:33:44;99390;;;19.25;100
44127;BME280;29786;50.798;7.302;2023-08-17T04:34:45;99390;;;19.23;100
44127;BME280;29786;50.798;7.302;2023-08-17T04:35:46;99400;;;19.26;100
44127;BME280;29786;50.798;7.302;2023-08-17T04:36:44;99400;;;19.31;100
44127;BME280;29786;50.798;7.302;2023-08-17T04:37:44;99400;;;19.4;100
44127;BME280;29786;50.798;7.302;2023-08-17T04:38:44;99400;;;19.43;100
44127;BME280;29786;50.798;7.302;2023-08-17T04:39:44;99400;;;19.4;100
44127;BME280;29786;50.798;7.302;2023-08-17T04:40:44;99400;;;19.34;100
44127;BME280;29786;50.798;7.302;2023-08-17T04:41:44;99400;;;19.31;100
44127;BME280;29786;50.798;7.302;2023-08-17T04:42:44;99400;;;19.21;100
44127;BME280;29786;50.798;7.302;2023-08-17T04:43:44;99400;;;19.15;100
44127;BME280;29786;50.798;7.302;2023-08-17T04:44:44;99400;;;19.15;100
44127;BME280;29786;50.798;7.302;2023-08-17T04:45:44;99410;;;19.11;100
44127;BME280;29786;50.798;7.302;2023-08-17T04:46:44;99400;;;19.11;100
44127;BME280;29786;50.798;7.302;2023-08-17T04:47:44;99400;;;19.08;100
44127;BME280;29786;50.798;7.302;2023-08-17T04:48:44;99400;;;19.1;100
44127;BME280;29786;50.798;7.302;2023-08-17T04:49:44;99400;;;19.15;100
44127;BME280;29786;50.798;7.302;2023-08-17T04:50:44;99410;;;19.17;100
44127;BME280;29786;50.798;7.302;2023-08-17T04:51:44;99410;;;19.2;100
44127;BME280;29786;50.798;7.302;2023-08-17T04:52:44;99410;;;19.24;100
44127;BME280;29786;50.798;7.302;2023-08-17T04:53:44;99410;;;19.21;100
44127;BME280;29786;50.798;7.302;2023-08-17T04:54:44;99410;;;19.21;100
44127;BME280;29786;50.798;7.302;2023-08-17T04:55:44;99410;;;19.25;100
44127;BME280;29786;50.798;7.302;2023-08-17T04:56:44;99410;;;19.27;100
44127;BME280;29786;50.798;7.302;2023-08-17T04:57:44;99410;;;19.33;100
44127;BME280;29786;50.798;7.302;2023-08-17T04:58:44;99420;;;19.31;100
44127;BME280;29786;50.798;7.302;2023-08-17T04:59:44;99410;;;19.37;100
44127;BME280;29786;50.798;7.302;2023-08-17T05:00:44;99410;;;19.41;100
44127;BME280;29786;50.798;7.302;2023-08-17T05:01:44;99420;;;19.5;100
44127;BME280;29786;50.798;7.302;2023-08-17T05:02:44;99410;;;19.54;100
44127;BME280;29786;50.798;7.302;2023-08-17T05:03:44;99410;;;19.58;100
44127;BME280;29786;50.798;7.302;2023-08-17T05:04:46;99420;;;19.66;100
44127;BME280;29786;50.798;7.302;2023-08-17T05:05:44;99420;;;19.67;100
44127;BME280;29786;50.798;7.302;2023-08-17T05:06:44;99410;;;19.73;100
44127;BME280;29786;50.798;7.302;2023-08-17T05:07:44;99420;;;19.71;100
44127;BME280;29786;50.798;7.302;2023-08-17T05:08:44;99420;;;19.73;100
44127;BME280;29786;50.798;7.302;2023-08-17T05:09:44;99420;;;19.77;100
44127;BME280;29786;50.798;7.302;2023-08-17T05:10:44;99420;;;19.76;100
44127;BME280;29786;50.798;7.302;2023-08-17T05:11:44;99420;;;19.81;100
44127;BME280;29786;50.798;7.302;2023-08-17T05:12:44;99420;;;19.83;100
44127;BME280;29786;50.798;7.302;2023-08-17T05:13:44;99420;;;19.83;100
44127;BME280;29786;50.798;7.302;2023-08-17T05:14:44;99420;;;19.79;100
44127;BME280;29786;50.798;7.302;2023-08-17T05:15:44;99420;;;19.7;100
44127;BME280;29786;50.798;7.302;2023-08-17T05:16:44;99420;;;19.7;100
44127;BME280;29786;50.798;7.302;2023-08-17T05:17:44;99420;;;19.66;100
44127;BME280;29786;50.798;7.302;2023-08-17T05:18:44;99420;;;19.65;100
44127;BME280;29786;50.798;7.302;2023-08-17T05:19:44;99420;;;19.61;100
44127;BME280;29786;50.798;7.302;2023-08-17T05:20:44;99410;;;19.56;100
44127;BME280;29786;50.798;7.302;2023-08-17T05:21:44;99420;;;19.45;100
44127;BME280;29786;50.798;7.302;2023-08-17T05:22:44;99420;;;19.42;100
44127;BME280;29786;50.798;7.302;2023-08-17T05:23:44;99420;;;19.46;100
44127;BME280;29786;50.798;7.302;2023-08-17T05:24:44;99420;;;19.52;100
44127;BME280;29786;50.798;7.302;2023-08-17T05:25:46;99420;;;19.51;100
44127;BME280;29786;50.798;7.302;2023-08-17T05:26:44;99420;;;19.51;100
44127;BME280;29786;50.798;7.302;2023-08-17T05:27:44;99430;;;19.51;100
44127;BME280;29786;50.798;7.302;2023-08-17T05:28:44;99430;;;19.5;100
44127;BME280;29786;50.798;7.302;2023-08-17T05:29:45;99430;;;19.58;100
44127;BME280;29786;50.798;7.302;2023-08-17T05:30:44;99430;;;19.57;100
44127;BME280;29786;50.798;7.302;2023-08-17T05:31:45;99430;;;19.68;100
44127;BME280;29786;50.798;7.302;2023-08-17T05:32:44;99430;;;19.73;100
44127;BME280;29786;50.798;7.302;2023-08-17T05:33:44;99430;;;19.6;100
44127;BME280;29786;50.798;7.302;2023-08-17T05:34:44;99430;;;19.57;100
44127;BME280;29786;50.798;7.302;2023-08-17T05:35:44;99430;;;19.54;100
44127;BME280;29786;50.798;7.302;2023-08-17T05:36:44;99430;;;19.49;100
44127;BME280;29786;50.798;7.302;2023-08-17T05:37:44;99430;;;19.49;100
44127;BME280;29786;50.798;7.302;2023-08-17T05:38:44;99430;;;19.5;100
44127;BME280;29786;50.798;7.302;2023-08-17T05:39:44;99430;;;19.54;100
44127;BME280;29786;50.798;7.302;2023-08-17T05:40:44;99430;;;19.58;100
44127;BME280;29786;50.798;7.302;2023-08-17T05:41:44;99430;;;19.54;100
44127;BME280;29786;50.798;7.302;2023-08-17T05:42:44;99440;;;19.51;100
44127;BME280;29786;50.798;7.302;2023-08-17T05:43:44;99430;;;19.51;100